Gales Addition, Washington
Current Conditions -  °F | °C
As of 2:17 PM on Thursday 18 Dec 2014 (Local Time) from KCLM Reporting Station
Broken Clouds Broken Clouds  
Wind Chill: 44°   Ceiling: 7000
Heat Index: 47°   Visibility: 10mi
Dew Point: 43°   Wind: 6mph
Humidity: 86%   Direction: 240°WSW
Pressure: 29.72"   Gusts: NA
Location:  48.0203°N, 123.478°W
Report Text: KCLM 182217Z AUTO 24005KT 10SM FEW009 BKN070 08/06 A2972 RMK AO2 T00830061 TSNO
Loading
Personal Weather Stations






























Interactive Weather Map New forecast layout! Learn more

10-Day Weather Forecast

Advertisements
Track Severe Weather on mobile